^^
Datos históricos de la estación: Murcia-Puente Tocinos
Diario Informe para Abril 10, 2019 Unidades:  Ingés    Métrico   Ambas
Diario Semanal Mensual Anual
  Máxima: Mínima: Promedio:
Temperatura: 57.2 °F 41.9 °F 50.4 °F
Punto de rocio: 34.5 °F 26.4 °F 30 °F
Humedad: 69% 32% 46%
Velocidad viento: 11.8mph 0mph 4.4mph
Racha viento: 20mph - -
Viento- - SO
Presión: 30.1 in 29.9 in -
Precipitación: 0 in    
 
 
Tabla de datos para Abril 10, 2019
Hora Temperatura Punto de rocio Presión Viento Velocidad viento Racha viento Humedad Intensidad lluvia(por hora) Nubes
00:04 57.2 °F 27.5 °F 29.9 in ONO 9.7 mph 19.7 mph 32% 0 in
00:09 57 °F 27.3 °F 29.9 in ONO 10.3 mph 20 mph 32% 0 in
00:14 56.7 °F 27.1 °F 29.9 in ONO 10.7 mph 16.1 mph 32% 0 in
00:19 56.7 °F 27 °F 29.9 in ONO 9.4 mph 16 mph 32% 0 in
00:24 56.5 °F 26.8 °F 29.9 in ONO 8.5 mph 14 mph 32% 0 in
00:29 56.1 °F 26.6 °F 29.9 in ONO 8.5 mph 14 mph 32% 0 in
00:34 55.9 °F 26.6 °F 29.9 in ONO 8.5 mph 13 mph 32% 0 in
00:39 55.8 °F 26.4 °F 29.9 in ONO 7.3 mph 13 mph 32% 0 in
00:44 55.6 °F 26.4 °F 29.9 in ONO 6.4 mph 13 mph 32.3% 0 in
00:49 55.2 °F 26.6 °F 29.9 in ONO 6.7 mph 13 mph 33% 0 in
00:54 55 °F 26.4 °F 29.9 in Oeste 6.9 mph 13 mph 33% 0 in
00:59 54.9 °F 26.4 °F 29.9 in ONO 6.5 mph 11.2 mph 33.2% 0 in
01:04 54.7 °F 26.8 °F 29.9 in ONO 6.2 mph 12 mph 34% 0 in
01:09 54.7 °F 26.8 °F 29.9 in Oeste 6 mph 12.5 mph 34% 0 in
01:14 54.7 °F 26.8 °F 29.9 in ONO 5.9 mph 13 mph 34% 0 in
01:19 54.9 °F 27 °F 29.9 in ONO 6.8 mph 17.3 mph 34% 0 in
01:24 54.9 °F 27 °F 29.9 in ONO 7.4 mph 17.5 mph 34% 0 in
01:29 54.9 °F 27 °F 29.9 in ONO 8.7 mph 17.3 mph 34% 0 in
01:34 54.9 °F 27.5 °F 29.9 in NO 9.7 mph 17 mph 34.8% 0 in
01:39 54.9 °F 27.7 °F 29.9 in ONO 9.7 mph 17.3 mph 35% 0 in
01:44 54.9 °F 27.7 °F 29.9 in ONO 9.7 mph 19 mph 35% 0 in
01:49 54.7 °F 28 °F 29.9 in ONO 10.9 mph 19 mph 35.7% 0 in
01:54 54.3 °F 27.9 °F 29.9 in ONO 11.8 mph 16.1 mph 36% 0 in
01:59 54.1 °F 27.7 °F 29.9 in ONO 10.4 mph 17.5 mph 36% 0 in
02:04 54 °F 27.7 °F 30 in ONO 9.7 mph 17 mph 36% 0 in
02:09 53.8 °F 27.7 °F 30 in NO 8.8 mph 14 mph 36.4% 0 in
02:14 53.6 °F 27.9 °F 30 in ONO 8.1 mph 17.3 mph 37% 0 in
02:19 53.4 °F 27.9 °F 30 in ONO 7.7 mph 17 mph 37% 0 in
02:24 53.2 °F 27.7 °F 30 in ONO 7.4 mph 12 mph 37.1% 0 in
02:29 53.1 °F 27.9 °F 30 in NO 5.4 mph 12 mph 37.7% 0 in
02:34 52.9 °F 27.9 °F 30 in ONO 4 mph 7.4 mph 38% 0 in
02:39 52.7 °F 27.7 °F 30 in ONO 3.5 mph 13.8 mph 38% 0 in
02:44 52.5 °F 27.7 °F 30 in ONO 3.1 mph 14 mph 38% 0 in
02:49 52.5 °F 27.7 °F 30 in ONO 4.4 mph 11.5 mph 38% 0 in
02:54 52.5 °F 27.5 °F 30 in ONO 5.4 mph 12 mph 38% 0 in
02:59 52.3 °F 27.5 °F 30 in NO 5.7 mph 12.7 mph 38% 0 in
03:04 52.2 °F 27.5 °F 30 in NO 5.9 mph 13 mph 38.4% 0 in
03:09 52.2 °F 27.9 °F 30 in ONO 5.5 mph 10 mph 39% 0 in
03:14 51.8 °F 27.7 °F 30 in ONO 5.2 mph 8.5 mph 39% 0 in
03:19 51.6 °F 27.5 °F 30 in ONO 4.5 mph 9 mph 39% 0 in
03:24 51.6 °F 27.3 °F 30 in NNO 4 mph 6 mph 39% 0 in
03:29 51.6 °F 27.3 °F 30 in ONO 2.9 mph 8.1 mph 39% 0 in
03:34 51.8 °F 27.5 °F 30 in ONO 2 mph 9.2 mph 39% 0 in
03:39 51.8 °F 27.7 °F 30 in Oeste 3.6 mph 11.8 mph 39% 0 in
03:44 52 °F 27.7 °F 30 in Oeste 4.7 mph 12 mph 39% 0 in
03:49 51.6 °F 27.5 °F 30 in Oeste 5.4 mph 9 mph 39% 0 in
03:54 51.6 °F 27.3 °F 30 in Oeste 5.9 mph 9 mph 39% 0 in
03:59 51.4 °F 27.3 °F 30 in OSO 4.9 mph 8.7 mph 39% 0 in
04:04 51.4 °F 27.3 °F 30 in Oeste 4.3 mph 9.2 mph 39% 0 in
04:09 51.4 °F 27.3 °F 30 in Oeste 4.5 mph 11.5 mph 39% 0 in
04:14 51.6 °F 27.5 °F 30 in SO 4.7 mph 12 mph 39.3% 0 in
04:19 51.4 °F 27.9 °F 30 in Oeste 4.3 mph 7 mph 40% 0 in
04:24 51.3 °F 27.7 °F 30 in OSO 4 mph 9.2 mph 40% 0 in
04:29 51.3 °F 28 °F 30 in Oeste 4 mph 9 mph 40.5% 0 in
04:34 51.1 °F 28.2 °F 30 in OSO 4 mph 8.1 mph 41% 0 in
04:39 50.7 °F 28 °F 30 in OSO 4.4 mph 8.1 mph 41.4% 0 in
04:44 50.5 °F 28.4 °F 30 in OSO 4.7 mph 11.2 mph 42% 0 in
04:49 50.5 °F 28.2 °F 30 in SO 5.4 mph 11 mph 42% 0 in
04:54 50.4 °F 28.4 °F 30 in SO 5.9 mph 10 mph 42.4% 0 in
04:59 50.2 °F 28.6 °F 30 in OSO 5.6 mph 9.7 mph 43% 0 in
05:04 50 °F 28.4 °F 30 in OSO 5.4 mph 10 mph 43% 0 in
05:09 49.8 °F 28.2 °F 30 in OSO 5 mph 8.1 mph 43% 0 in
05:14 49.6 °F 28.4 °F 30 in OSO 4.7 mph 8.1 mph 43.6% 0 in
05:19 49.6 °F 28.6 °F 30 in OSO 4.5 mph 8.1 mph 44% 0 in
05:24 49.5 °F 28.4 °F 30 in OSO 4.3 mph 12.3 mph 44% 0 in
05:29 49.3 °F 28.2 °F 30 in OSO 4.8 mph 13 mph 44% 0 in
05:34 49.3 °F 28.2 °F 30 in OSO 5.2 mph 15 mph 44% 0 in
05:39 49.3 °F 28.2 °F 30 in OSO 4.5 mph 15 mph 44% 0 in
05:44 49.3 °F 28.2 °F 30 in OSO 4 mph 6.2 mph 44% 0 in
05:49 49.3 °F 28.2 °F 30 in OSO 3.5 mph 7.6 mph 44% 0 in
05:54 49.3 °F 28.2 °F 30 in OSO 3.1 mph 8.1 mph 44% 0 in
05:59 49.1 °F 28.2 °F 30 in SO 3.7 mph 8 mph 44.3% 0 in
06:04 49.3 °F 28.4 °F 30 in OSO 4 mph 11.8 mph 44.1% 0 in
06:09 49.3 °F 28.2 °F 30 in SO 4.4 mph 12 mph 44% 0 in
06:14 49.3 °F 28.2 °F 30 in OSO 4.7 mph 9.2 mph 44% 0 in
06:19 49.1 °F 28.2 °F 30 in SO 4.5 mph 9 mph 44.3% 0 in
06:24 49.1 °F 28.2 °F 30 in OSO 4.3 mph 9 mph 44.3% 0 in
06:29 49.1 °F 28 °F 30 in SO 4.8 mph 11.8 mph 44% 0 in
06:34 49.1 °F 28.2 °F 30 in SO 5.2 mph 12 mph 44.2% 0 in
06:39 48.9 °F 28.4 °F 30 in SO 4.9 mph 8.1 mph 45% 0 in
06:44 48.7 °F 28.4 °F 30 in SO 4.7 mph 7 mph 45% 0 in
06:49 48.6 °F 28.6 °F 30 in SO 4.3 mph 7 mph 45.7% 0 in
06:54 48.6 °F 28.6 °F 30 in SSO 4 mph 7 mph 46% 0 in
06:59 48.2 °F 28.8 °F 30 in SO 3.7 mph 7.4 mph 46.7% 0 in
07:04 48 °F 28.2 °F 30 in OSO 3.6 mph 10 mph 46% 0 in
07:09 48 °F 28.6 °F 30 in SO 3.6 mph 10 mph 46.6% 0 in
07:14 47.8 °F 28.6 °F 30 in SO 3.6 mph 6 mph 47% 0 in
07:19 47.7 °F 28.6 °F 30 in SO 3.6 mph 6 mph 47.3% 0 in
07:24 47.7 °F 28.4 °F 30 in OSO 3.6 mph 8.1 mph 47% 0 in
07:29 47.5 °F 28.2 °F 30 in Oeste 3.8 mph 8 mph 47.3% 0 in
07:34 47.1 °F 28.4 °F 30 in Oeste 4 mph 7 mph 47.7% 0 in
07:39 47.1 °F 28.4 °F 30 in OSO 3.5 mph 7 mph 48% 0 in
07:44 47.1 °F 28.4 °F 30 in SO 3.1 mph 7 mph 48% 0 in
07:49 47.1 °F 28.4 °F 30 in SO 3 mph 6 mph 48% 0 in
07:54 46.9 °F 28.4 °F 30 in SO 2.9 mph 3.5 mph 48% 0 in
07:59 46.9 °F 28.6 °F 30 in SO 1.1 mph 3.5 mph 48.6% 0 in
08:04 46.9 °F 28.4 °F 30 in Calm   6.9 mph 48.4% 0 in
08:09 46.9 °F 28.8 °F 30 in OSO 1.7 mph 9.2 mph 49% 0 in
08:14 46.8 °F 28.6 °F 30 in SO 3.1 mph 9 mph 49.2% 0 in
08:19 46.6 °F 28.9 °F 30 in SO 3.8 mph 8.1 mph 50% 0 in
08:24 46.6 °F 28.9 °F 30 in SO 4.3 mph 8.5 mph 50% 0 in
08:29 46.4 °F 28.8 °F 30 in SO 4.9 mph 9 mph 50% 0 in
08:34 46.2 °F 28.6 °F 30 in SO 5.4 mph 9.7 mph 50% 0 in
08:39 46 °F 28.9 °F 30 in OSO 5.4 mph 10.4 mph 50.8% 0 in
08:44 46 °F 28.9 °F 30 in OSO 5.4 mph 10 mph 51% 0 in
08:49 46 °F 28.9 °F 30 in SO 5.4 mph 8.1 mph 51% 0 in
08:54 46 °F 28.9 °F 30 in Sur 5.4 mph 8 mph 51% 0 in
08:59 46.2 °F 29.1 °F 30 in Sur 4.5 mph 7 mph 51% 0 in
09:04 46.2 °F 29.1 °F 30 in Sur 4 mph 6.2 mph 51% 0 in
09:09 46.2 °F 29.1 °F 30 in Sur 3.5 mph 6 mph 51% 0 in
09:14 46.2 °F 29.1 °F 30 in Sur 3.1 mph 6 mph 51.1% 0 in
09:19 46.2 °F 29.5 °F 30 in Sur 3.7 mph 6.2 mph 52% 0 in
09:24 46.2 °F 29.5 °F 30 in Sur 4 mph 9.2 mph 52% 0 in
09:29 46 °F 29.5 °F 30 in Sur 4.8 mph 9 mph 52.3% 0 in
09:34 45.9 °F 29.7 °F 30 in Sur 5.4 mph 9.2 mph 53.2% 0 in
09:39 45.9 °F 29.8 °F 30 in SSO 5.4 mph 9.2 mph 53.5% 0 in
09:44 46 °F 29.7 °F 30 in SSO 5.4 mph 9.7 mph 52.4% 0 in
09:49 46.4 °F 29.7 °F 30.1 in SSO 5.4 mph 10 mph 52% 0 in
09:54 46.6 °F 29.8 °F 30.1 in Sur 5.4 mph 9.7 mph 51.8% 0 in
09:59 46.8 °F 29.7 °F 30.1 in SSO 5.4 mph 10 mph 51.5% 0 in
10:04 46.9 °F 29.7 °F 30.1 in SO 5.4 mph 9.2 mph 51% 0 in
10:09 47.1 °F 29.8 °F 30.1 in SO 5.7 mph 10.4 mph 51% 0 in
10:14 47.1 °F 29.7 °F 30.1 in SO 5.9 mph 10.4 mph 50.6% 0 in
10:19 47.3 °F 29.5 °F 30.1 in SO 5.6 mph 11.5 mph 49.7% 0 in
10:24 47.7 °F 29.5 °F 30.1 in SO 5.4 mph 12 mph 49.1% 0 in
10:29 47.8 °F 29.5 °F 30.1 in SO 6.3 mph 13.8 mph 49% 0 in
10:34 48 °F 29.7 °F 30.1 in OSO 6.9 mph 14 mph 49% 0 in
10:39 48.2 °F 30 °F 30.1 in SO 6.1 mph 11.5 mph 49.1% 0 in
10:44 48.4 °F 30.2 °F 30.1 in OSO 5.4 mph 12 mph 49.1% 0 in
10:49 48.7 °F 30.2 °F 30.1 in OSO 4.3 mph 7 mph 48.6% 0 in
10:54 48.9 °F 30 °F 30.1 in SO 3.6 mph 7 mph 47.7% 0 in
10:59 48.9 °F 29.8 °F 30.1 in SO 3.6 mph 7 mph 47.4% 0 in
11:04 48.9 °F 29.3 °F 30.1 in SO 3.6 mph 10.7 mph 46.4% 0 in
11:09 49.1 °F 29.3 °F 30.1 in OSO 4 mph 11 mph 46% 0 in
11:14 49.3 °F 29.3 °F 30.1 in OSO 4.3 mph 8.1 mph 46% 0 in
11:19 49.5 °F 29.1 °F 30.1 in OSO 4.8 mph 8 mph 45.4% 0 in
11:24 49.5 °F 28.9 °F 30.1 in SO 5.2 mph 8.1 mph 45% 0 in
11:29 49.5 °F 29.1 °F 30.1 in SO 4.7 mph 8.1 mph 45% 0 in
11:34 49.6 °F 29.1 °F 30.1 in OSO 4.3 mph 8 mph 45% 0 in
11:39 49.6 °F 29.1 °F 30.1 in OSO 4.1 mph 7 mph 44.9% 0 in
11:44 50 °F 29.1 °F 30.1 in Oeste 4 mph 10.7 mph 44.4% 0 in
11:49 50.4 °F 29.3 °F 30.1 in Oeste 4.4 mph 11.2 mph 44% 0 in
11:54 50.7 °F 29.1 °F 30.1 in Oeste 4.7 mph 12 mph 43.2% 0 in
11:59 50.9 °F 29.1 °F 30.1 in OSO 6.1 mph 14 mph 43% 0 in
12:04 50.9 °F 29.3 °F 30.1 in OSO 6.9 mph 14 mph 43% 0 in
12:09 50.9 °F 29.1 °F 30.1 in OSO 6.6 mph 12 mph 43% 0 in
12:14 51.1 °F 29.3 °F 30.1 in Oeste 6.4 mph 12.7 mph 43% 0 in
12:19 51.4 °F 29.3 °F 30.1 in OSO 5.8 mph 13 mph 42.3% 0 in
12:24 51.8 °F 29.3 °F 30.1 in OSO 5.4 mph 12 mph 41.8% 0 in
12:29 52 °F 28.9 °F 30.1 in Oeste 5.4 mph 12.7 mph 41% 0 in
12:34 51.8 °F 28.8 °F 30.1 in Oeste 5.4 mph 13 mph 41% 0 in
12:39 52 °F 28.9 °F 30.1 in Oeste 5.7 mph 13 mph 40.9% 0 in
12:44 52.2 °F 28.9 °F 30.1 in ONO 5.9 mph 13 mph 40.7% 0 in
12:49 52.2 °F 28.6 °F 30.1 in ONO 6.2 mph 13.5 mph 40% 0 in
12:54 52.2 °F 28.6 °F 30.1 in Oeste 6.4 mph 13 mph 40% 0 in
12:59 52.2 °F 28.9 °F 30.1 in Oeste 7 mph 13 mph 40.5% 0 in
13:04 52.5 °F 28.9 °F 30.1 in Oeste 7.4 mph 10 mph 40% 0 in
13:09 52.9 °F 29.1 °F 30.1 in Oeste 6.5 mph 10.4 mph 40% 0 in
13:14 53.2 °F 29.3 °F 30.1 in ONO 5.9 mph 10 mph 39.6% 0 in
13:19 53.6 °F 29.5 °F 30.1 in NO 5.2 mph 9.2 mph 39.4% 0 in
13:24 53.8 °F 29.5 °F 30 in ONO 4.7 mph 11.5 mph 39% 0 in
13:29 53.8 °F 29.5 °F 30 in OSO 5.1 mph 12 mph 39% 0 in
13:34 53.8 °F 29.8 °F 30 in Oeste 5.4 mph 9 mph 39.8% 0 in
13:39 54 °F 30.2 °F 30 in OSO 5.3 mph 9 mph 40% 0 in
13:44 54.1 °F 30.4 °F 30 in Oeste 5.2 mph 11.8 mph 40% 0 in
13:49 54.1 °F 30.4 °F 30 in ONO 5.6 mph 12 mph 40% 0 in
13:54 54.1 °F 30 °F 30 in NO 5.9 mph 12 mph 39.7% 0 in
13:59 54.3 °F 30.2 °F 30 in Oeste 5.5 mph 10 mph 39.5% 0 in
14:04 54.7 °F 30.7 °F 30 in Oeste 5.2 mph 11.8 mph 40% 0 in
14:09 54.7 °F 30.7 °F 30 in Oeste 5.8 mph 12 mph 40% 0 in
14:14 54.9 °F 30.2 °F 30 in OSO 6.2 mph 10.2 mph 38.9% 0 in
14:19 54.9 °F 30 °F 30 in SO 5.7 mph 12.5 mph 38.4% 0 in
14:24 55 °F 30.4 °F 30 in Oeste 5.4 mph 13 mph 39% 0 in
14:29 55.2 °F 30.9 °F 30 in NO 5.4 mph 9.7 mph 39.4% 0 in
14:34 55.2 °F 30.7 °F 30 in ONO 5.4 mph 12.7 mph 39.2% 0 in
14:39 55 °F 30.6 °F 30 in Oeste 5.7 mph 13 mph 39.2% 0 in
14:44 54.9 °F 30.4 °F 30 in Oeste 5.9 mph 10 mph 39% 0 in
14:49 54.9 °F 31.1 °F 30 in OSO 4.8 mph 7 mph 40% 0 in
14:54 55 °F 30.7 °F 30 in OSO 4 mph 6.9 mph 39.4% 0 in
14:59 55 °F 30.6 °F 30 in Oeste 3.4 mph 9.2 mph 39% 0 in
15:04 55 °F 29.5 °F 30 in ONO 3.1 mph 11.4 mph 37.3% 0 in
15:09 55 °F 29.8 °F 30 in Oeste 4.8 mph 11 mph 37.9% 0 in
15:14 54.9 °F 30 °F 30 in Oeste 5.9 mph 9 mph 38.4% 0 in
15:19 55.2 °F 30.4 °F 30 in OSO 4.2 mph 10.4 mph 38.4% 0 in
15:24 55.6 °F 29.5 °F 30 in ONO 2.9 mph 10 mph 36.8% 0 in
15:29 55.2 °F 29.1 °F 30 in ONO 4.2 mph 9 mph 36.6% 0 in
15:34 55.2 °F 29.3 °F 30 in ONO 5.2 mph 8 mph 36.8% 0 in
15:39 55.6 °F 29.7 °F 30 in OSO 4.5 mph 8.1 mph 36.9% 0 in
15:44 55.9 °F 29.5 °F 30 in SO 4 mph 8.1 mph 36.2% 0 in
15:49 56.1 °F 29.5 °F 30 in SSO 4.4 mph 8 mph 36% 0 in
15:54 55.9 °F 29.5 °F 30 in Este 4.7 mph 7 mph 36.1% 0 in
15:59 56.1 °F 29.7 °F 30 in North 3.5 mph 5 mph 36% 0 in
16:04 56.5 °F 29.5 °F 30 in NNE 2.9 mph 5.9 mph 35.5% 0 in
16:09 56.5 °F 29.3 °F 30 in NNE 2.6 mph 6 mph 35.3% 0 in
16:14 56.1 °F 29.1 °F 30 in North 2.4 mph 5.9 mph 35.2% 0 in
16:19 56.3 °F 28.9 °F 30 in SE 2.4 mph 6 mph 35% 0 in
16:24 56.5 °F 29.1 °F 30 in SSE 2.4 mph 6.2 mph 34.9% 0 in
16:29 56.8 °F 29.1 °F 30 in ONO 2.4 mph 6 mph 34.6% 0 in
16:34 56.8 °F 29.3 °F 30 in NNE 2.4 mph 10.4 mph 35% 0 in
16:39 56.3 °F 29.1 °F 30 in NE 3.7 mph 10 mph 35.2% 0 in
16:44 56.1 °F 28.8 °F 30 in NE 4.7 mph 7 mph 35% 0 in
16:49 55.9 °F 29.1 °F 30 in NE 4.3 mph 6.9 mph 35.6% 0 in
16:54 55.8 °F 29.1 °F 30 in NE 4 mph 8.1 mph 36% 0 in
16:59 55.4 °F 29.1 °F 30 in NE 4.8 mph 8.1 mph 36.3% 0 in
17:04 55.4 °F 29.5 °F 30 in NE 5.2 mph 8 mph 37% 0 in
17:09 55.2 °F 29.8 °F 30 in NE 4.7 mph 7 mph 37.7% 0 in
17:14 55.2 °F 30 °F 30 in NNE 4.3 mph 6.9 mph 38% 0 in
17:19 55.2 °F 29.8 °F 30 in NNE 4.3 mph 7 mph 37.8% 0 in
17:24 55 °F 29.8 °F 30 in NE 4.3 mph 7.4 mph 38% 0 in
17:29 55 °F 30.6 °F 30 in NE 4.5 mph 8.1 mph 39.3% 0 in
17:34 54.9 °F 31.3 °F 30 in NE 4.7 mph 9.2 mph 40.5% 0 in
17:39 54.5 °F 31.3 °F 30 in NE 4.7 mph 9 mph 41% 0 in
17:44 54.3 °F 31.3 °F 30 in NE 4.7 mph 7 mph 41.4% 0 in
17:49 54.1 °F 31.5 °F 30 in NE 4.3 mph 6.2 mph 42% 0 in
17:54 54 °F 31.8 °F 30 in NE 4 mph 8.1 mph 42.8% 0 in
17:59 53.8 °F 31.6 °F 30 in NE 4.2 mph 8 mph 43% 0 in
18:04 53.2 °F 32 °F 30 in NE 4.3 mph 12.7 mph 44.4% 0 in
18:09 52.7 °F 32.7 °F 30 in NE 5.2 mph 13 mph 46.6% 0 in
18:14 52.2 °F 33.3 °F 30 in NE 5.9 mph 9 mph 48.6% 0 in
18:19 51.4 °F 33.6 °F 30 in ENE 5.5 mph 9.2 mph 50.2% 0 in
18:24 51.3 °F 33.8 °F 30 in ENE 5.2 mph 11 mph 51% 0 in
18:29 51.1 °F 34 °F 30 in NE 4.9 mph 10 mph 52% 0 in
18:34 50.7 °F 34 °F 30 in NE 4.7 mph 8 mph 52.3% 0 in
18:39 50.7 °F 34.2 °F 30 in NE 4.3 mph 7 mph 53% 0 in
18:44 50.5 °F 34 °F 30 in NE 4 mph 6 mph 53% 0 in
18:49 50.4 °F 34 °F 30.1 in NE 3.8 mph 6.9 mph 53% 0 in
18:54 50.4 °F 34 °F 30.1 in NE 3.6 mph 7 mph 53.3% 0 in
18:59 50.2 °F 34.2 °F 30.1 in NE 3.3 mph 5 mph 54% 0 in
19:04 49.8 °F 34 °F 30.1 in NE 3.1 mph 5 mph 54% 0 in
19:09 49.6 °F 34.2 °F 30.1 in NE 2.7 mph 5 mph 54.9% 0 in
19:14 49.5 °F 34.3 °F 30.1 in NE 2.4 mph 4 mph 55.7% 0 in
19:19 49.3 °F 34.3 °F 30.1 in NE 1.8 mph 3 mph 56% 0 in
19:24 49.1 °F 34.3 °F 30.1 in NE 1.4 mph   56.8% 0 in
19:29 48.7 °F 34.3 °F 30.1 in NE 0.6 mph   57.3% 0 in
19:34 48.6 °F 34.5 °F 30.1 in Calm     58% 0 in
19:39 48.6 °F 34.3 °F 30.1 in Calm   4.7 mph 58% 0 in
19:44 48.4 °F 34.3 °F 30.1 in Calm   5 mph 58% 0 in
19:49 48.4 °F 34.3 °F 30.1 in ONO 1.8 mph 5 mph 58% 0 in
19:54 48.4 °F 34.3 °F 30.1 in ONO 2.9 mph 5 mph 58% 0 in
19:59 48.4 °F 34.3 °F 30.1 in ONO 2.6 mph 5 mph 58% 0 in
20:04 48.4 °F 34.3 °F 30.1 in ONO 2.4 mph 5 mph 58% 0 in
20:09 48.4 °F 34.3 °F 30.1 in ONO 2.1 mph 5 mph 58% 0 in
20:14 48.4 °F 34 °F 30.1 in NNO 1.8 mph 6.2 mph 57.2% 0 in
20:19 48.6 °F 34 °F 30.1 in ONO 2.2 mph 6 mph 57% 0 in
20:24 48.4 °F 34.2 °F 30.1 in ONO 2.4 mph 5 mph 57.8% 0 in
20:29 48.2 °F 34.2 °F 30.1 in ONO 2.2 mph 5 mph 57.8% 0 in
20:34 48 °F 34 °F 30.1 in ONO 2 mph 4 mph 58% 0 in
20:39 48 °F 34 °F 30.1 in ONO 0.8 mph 1 mph 58% 0 in
20:44 47.8 °F 34 °F 30.1 in Calm     58.2% 0 in
20:49 47.8 °F 34.2 °F 30.1 in Calm     59% 0 in
20:54 47.7 °F 34 °F 30.1 in Calm     59% 0 in
20:59 47.5 °F 34.3 °F 30.1 in Calm     59.9% 0 in
21:04 47.1 °F 34 °F 30.1 in Calm   3.5 mph 60% 0 in
21:09 46.9 °F 34 °F 30.1 in Calm   3 mph 60.5% 0 in
21:14 46.8 °F 34 °F 30.1 in Calm   2.4 mph 61% 0 in
21:19 46.6 °F 34 °F 30.1 in ONO 0.8 mph 3.5 mph 61.4% 0 in
21:24 46.2 °F 34 °F 30.1 in ONO 1.4 mph 4.6 mph 62% 0 in
21:29 46 °F 33.6 °F 30.1 in ONO 2 mph 5 mph 62% 0 in
21:34 45.7 °F 33.6 °F 30.1 in ONO 2.4 mph 5.2 mph 62.5% 0 in
21:39 45.3 °F 33.4 °F 30.1 in ONO 2.7 mph 5 mph 63% 0 in
21:44 45 °F 33.4 °F 30.1 in ONO 2.9 mph 5 mph 63.8% 0 in
21:49 44.8 °F 33.6 °F 30.1 in ONO 2.4 mph 5 mph 64.6% 0 in
21:54 44.6 °F 34 °F 30.1 in ONO 2 mph 5 mph 65.7% 0 in
21:59 44.8 °F 34 °F 30.1 in ONO 2.2 mph 5 mph 65.5% 0 in
22:04 45 °F 34.3 °F 30.1 in ONO 2.4 mph 4 mph 66% 0 in
22:09 45 °F 34.3 °F 30.1 in ONO 1 mph 3.1 mph 66% 0 in
22:14 45 °F 34 °F 30.1 in Calm   3.5 mph 65% 0 in
22:19 44.8 °F 33.8 °F 30.1 in SE 1.2 mph 5.9 mph 65% 0 in
22:24 44.2 °F 33.6 °F 30.1 in SE 2 mph 6.2 mph 65.8% 0 in
22:29 43.9 °F 33.6 °F 30.1 in ESE 2.6 mph 6 mph 66.8% 0 in
22:34 43.5 °F 33.4 °F 30.1 in ESE 3.1 mph 5 mph 67% 0 in
22:39 43.3 °F 33.3 °F 30.1 in ESE 2.5 mph 5 mph 67.5% 0 in
22:44 43.2 °F 33.3 °F 30.1 in ESE 2 mph 4.6 mph 68% 0 in
22:49 43.2 °F 33.3 °F 30.1 in ESE 2 mph 5.2 mph 68% 0 in
22:54 43.2 °F 33.3 °F 30.1 in SE 2 mph 6.9 mph 68% 0 in
22:59 42.8 °F 32.9 °F 30.1 in SE 3 mph 7 mph 68% 0 in
23:04 42.4 °F 32.9 °F 30.1 in Sur 3.6 mph 6 mph 68.5% 0 in
23:09 42.4 °F 33.1 °F 30.1 in SO 3.6 mph 6 mph 69% 0 in
23:14 42.8 °F 32.9 °F 30.1 in SO 3.6 mph 5 mph 68% 0 in
23:19 43 °F 33.1 °F 30.1 in SO 3.2 mph 5 mph 68% 0 in
23:24 43 °F 32.9 °F 30.1 in SO 2.9 mph 4 mph 67.4% 0 in
23:29 43 °F 33.1 °F 30.1 in SO 2.4 mph 4 mph 68% 0 in
23:34 42.8 °F 32.9 °F 30.1 in SSE 2 mph 6.2 mph 68% 0 in
23:39 42.4 °F 32.4 °F 30.1 in SE 2.6 mph 6.9 mph 67.6% 0 in
23:44 41.9 °F 32.2 °F 30.1 in Sur 3.1 mph 7 mph 68% 0 in
23:49 41.9 °F 32.2 °F 30.1 in SO 3.8 mph 7 mph 68% 0 in
23:54 42.1 °F 32.4 °F 30.1 in SO 4.3 mph 7 mph 68% 0 in
23:59 42.3 °F 32.4 °F 30.1 in SSO 3.9 mph 6 mph 68% 0 in
Murcia-Puente Tocinos, Espa?a
Compliments of Weather Underground - 3 mb

La estación de MeteoMurcia.com, publica sus datos en los siguientes proyectos:

Weather Underground PWS IMURCIAP2 Meteoclimatic www.awekas.at

W3Counter
Web Analytics